createdAt,value
2022-09-16T00:00:27.724Z,12.90
2022-09-16T00:02:55.445Z,12.90
2022-09-16T00:05:22.651Z,13.20
2022-09-16T00:07:49.356Z,13.00
2022-09-16T00:10:16.406Z,12.90
2022-09-16T00:12:43.159Z,12.90
2022-09-16T00:15:10.971Z,12.90
2022-09-16T00:17:38.445Z,12.90
2022-09-16T00:20:06.877Z,12.90
2022-09-16T00:22:34.115Z,12.70
2022-09-16T00:25:00.869Z,12.70
2022-09-16T00:27:27.800Z,12.70
2022-09-16T00:29:54.496Z,12.80
2022-09-16T00:32:21.240Z,12.70
2022-09-16T00:34:47.953Z,12.80
2022-09-16T00:37:15.300Z,13.00
2022-09-16T00:39:42.039Z,12.70
2022-09-16T00:42:11.974Z,12.70
2022-09-16T00:45:03.921Z,12.60
2022-09-16T00:47:40.324Z,12.50
2022-09-16T00:50:18.057Z,12.50
2022-09-16T00:52:45.001Z,12.50
2022-09-16T00:55:17.333Z,12.70
2022-09-16T00:57:45.137Z,12.60
2022-09-16T01:00:13.649Z,12.50
2022-09-16T01:02:43.367Z,12.50
2022-09-16T01:05:15.366Z,12.50
2022-09-16T01:07:51.164Z,12.50
2022-09-16T01:10:21.120Z,12.60
2022-09-16T01:12:51.209Z,12.60
2022-09-16T01:15:18.147Z,12.60
2022-09-16T01:18:07.180Z,12.60
2022-09-16T01:20:42.987Z,12.50
2022-09-16T01:23:37.312Z,12.50
2022-09-16T01:26:30.876Z,12.40
2022-09-16T01:29:29.885Z,12.40
2022-09-16T01:32:14.948Z,12.40
2022-09-16T01:35:08.356Z,12.40
2022-09-16T01:38:12.292Z,12.40
2022-09-16T01:41:06.524Z,12.40
2022-09-16T01:43:59.938Z,12.40
2022-09-16T01:46:48.381Z,12.50
2022-09-16T01:49:15.096Z,12.50
2022-09-16T01:51:52.975Z,12.50
2022-09-16T01:54:29.871Z,12.50
2022-09-16T01:57:15.335Z,12.50
2022-09-16T01:59:48.646Z,12.50
2022-09-16T02:02:26.059Z,12.50
2022-09-16T02:04:56.756Z,12.50
2022-09-16T02:07:29.576Z,12.50
2022-09-16T02:10:06.697Z,12.60
2022-09-16T02:12:38.267Z,12.60
2022-09-16T02:15:12.410Z,12.60
2022-09-16T02:17:45.018Z,12.60
2022-09-16T02:20:17.430Z,12.70
2022-09-16T02:22:48.751Z,12.70
2022-09-16T02:25:18.071Z,12.70
2022-09-16T02:27:49.278Z,12.90
2022-09-16T02:30:19.064Z,12.80
2022-09-16T02:32:55.095Z,12.70
2022-09-16T02:35:23.005Z,12.70
2022-09-16T02:38:12.549Z,12.80
2022-09-16T02:40:48.241Z,12.70
2022-09-16T02:43:15.209Z,12.60
2022-09-16T02:46:06.287Z,12.60
2022-09-16T02:49:03.817Z,12.60
2022-09-16T02:51:49.146Z,12.50
2022-09-16T02:54:45.062Z,12.50
2022-09-16T02:57:11.774Z,12.50
2022-09-16T02:59:39.331Z,12.50
2022-09-16T03:02:06.403Z,12.50
2022-09-16T03:04:35.366Z,12.50
2022-09-16T03:07:05.605Z,12.50
2022-09-16T03:09:35.339Z,12.50
2022-09-16T03:12:02.087Z,12.50
2022-09-16T03:14:45.395Z,12.60
2022-09-16T03:17:30.689Z,12.50
2022-09-16T03:20:21.174Z,12.50
2022-09-16T03:23:02.807Z,12.50
2022-09-16T03:25:44.579Z,12.50
2022-09-16T03:28:25.518Z,12.60
2022-09-16T03:31:08.907Z,12.60
2022-09-16T03:33:50.789Z,12.50
2022-09-16T03:36:22.764Z,12.50
2022-09-16T03:38:50.218Z,12.40
2022-09-16T03:41:17.658Z,12.40
2022-09-16T03:44:00.306Z,12.40
2022-09-16T03:46:30.873Z,12.50
2022-09-16T03:48:58.952Z,12.40
2022-09-16T03:51:26.756Z,12.40
2022-09-16T03:53:54.516Z,12.50
2022-09-16T03:56:23.510Z,12.50
2022-09-16T03:58:50.370Z,12.50
2022-09-16T04:01:17.164Z,12.50
2022-09-16T04:03:43.875Z,12.50
2022-09-16T04:06:10.608Z,12.50
2022-09-16T04:08:37.471Z,12.50
2022-09-16T04:11:05.827Z,12.50
2022-09-16T04:13:34.312Z,12.50
2022-09-16T04:16:03.438Z,12.50
2022-09-16T04:18:34.734Z,12.50
2022-09-16T04:21:03.033Z,12.50
2022-09-16T04:23:31.201Z,12.60
2022-09-16T04:26:00.388Z,12.50
2022-09-16T04:28:28.411Z,12.50
2022-09-16T04:30:59.049Z,12.50
2022-09-16T04:33:32.018Z,12.40
2022-09-16T04:36:10.218Z,12.40
2022-09-16T04:38:37.151Z,12.50
2022-09-16T04:41:15.871Z,12.50
2022-09-16T04:43:42.609Z,12.50
2022-09-16T04:46:09.745Z,12.50
2022-09-16T04:48:37.182Z,12.60
2022-09-16T04:51:12.110Z,12.40
2022-09-16T04:53:40.657Z,12.40
2022-09-16T04:56:18.433Z,12.40
2022-09-16T04:58:48.026Z,12.40
2022-09-16T05:01:17.886Z,12.50
2022-09-16T05:03:46.849Z,12.50
2022-09-16T05:06:20.300Z,12.40
2022-09-16T05:08:48.108Z,12.40
2022-09-16T05:11:19.531Z,12.50
2022-09-16T05:13:46.654Z,12.40
2022-09-16T05:16:16.101Z,12.40
2022-09-16T05:18:44.835Z,12.40
2022-09-16T05:21:15.892Z,12.30
2022-09-16T05:23:46.718Z,12.40
2022-09-16T05:26:17.118Z,12.50
2022-09-16T05:28:43.872Z,12.40
2022-09-16T05:31:13.494Z,12.30
2022-09-16T05:33:43.353Z,12.30
2022-09-16T05:36:15.964Z,12.40
2022-09-16T05:38:54.355Z,12.40
2022-09-16T05:41:30.174Z,12.40
2022-09-16T05:44:00.443Z,12.40
2022-09-16T05:46:28.379Z,12.40
2022-09-16T05:48:56.144Z,12.50
2022-09-16T05:51:24.293Z,12.40
2022-09-16T05:53:52.104Z,12.50
2022-09-16T05:56:26.772Z,12.60
2022-09-16T05:58:55.354Z,12.60
2022-09-16T06:01:28.089Z,12.60
2022-09-16T06:03:55.195Z,12.80
2022-09-16T06:06:28.466Z,12.70
2022-09-16T06:08:57.907Z,12.70
2022-09-16T06:11:26.055Z,12.80
2022-09-16T06:13:58.093Z,12.80
2022-09-16T06:16:26.031Z,12.80
2022-09-16T06:18:53.958Z,12.80
2022-09-16T06:21:21.675Z,12.90
2022-09-16T06:23:48.450Z,12.80
2022-09-16T06:26:21.249Z,12.90
2022-09-16T06:28:49.014Z,12.90
2022-09-16T06:31:22.023Z,13.00
2022-09-16T06:33:50.512Z,13.00
2022-09-16T06:36:20.384Z,13.00
2022-09-16T06:38:47.968Z,13.00
2022-09-16T06:41:16.239Z,13.00
2022-09-16T06:43:43.888Z,13.10
2022-09-16T06:46:14.014Z,13.00
2022-09-16T06:48:42.258Z,13.10
2022-09-16T06:51:18.270Z,13.10
2022-09-16T06:53:46.478Z,13.10
2022-09-16T06:56:15.822Z,13.20
2022-09-16T06:58:44.171Z,13.20
2022-09-16T07:01:19.200Z,13.30
2022-09-16T07:03:48.653Z,13.30
2022-09-16T07:06:17.502Z,13.30
2022-09-16T07:08:44.973Z,13.40
2022-09-16T07:11:17.892Z,13.40
2022-09-16T07:13:47.117Z,13.50
2022-09-16T07:16:17.371Z,13.50
2022-09-16T07:18:44.745Z,13.60
2022-09-16T07:21:19.390Z,13.60
2022-09-16T07:23:46.826Z,13.70
2022-09-16T07:26:17.770Z,13.70
2022-09-16T07:28:48.536Z,13.80
2022-09-16T07:31:26.639Z,13.80
2022-09-16T07:33:57.292Z,13.90
2022-09-16T07:36:34.104Z,13.90
2022-09-16T07:39:01.043Z,13.90
2022-09-16T07:41:30.269Z,14.00
2022-09-16T07:43:59.313Z,14.00
2022-09-16T07:46:28.077Z,14.00
2022-09-16T07:48:55.573Z,14.00
2022-09-16T07:51:24.948Z,14.00
2022-09-16T07:54:00.843Z,14.00
2022-09-16T07:56:29.272Z,14.10
2022-09-16T07:58:57.472Z,14.20
2022-09-16T08:01:25.074Z,14.10
2022-09-16T08:03:52.421Z,14.20
2022-09-16T08:06:22.326Z,14.10
2022-09-16T08:08:51.575Z,14.10
2022-09-16T08:11:18.630Z,14.20
2022-09-16T08:13:46.376Z,14.20
2022-09-16T08:16:16.210Z,14.20
2022-09-16T08:18:43.613Z,14.20
2022-09-16T08:21:16.143Z,14.20
2022-09-16T08:23:43.300Z,14.20
2022-09-16T08:26:12.147Z,14.20
2022-09-16T08:28:57.411Z,14.20
2022-09-16T08:31:28.607Z,14.20
2022-09-16T08:33:55.709Z,14.30
2022-09-16T08:36:24.486Z,14.30
2022-09-16T08:38:54.253Z,14.30
2022-09-16T08:41:52.729Z,14.30
2022-09-16T08:44:40.255Z,14.30
2022-09-16T08:47:31.255Z,14.20
2022-09-16T08:50:01.168Z,14.20
2022-09-16T08:52:37.504Z,14.20
2022-09-16T08:55:31.367Z,14.20
2022-09-16T08:58:15.109Z,14.10
2022-09-16T09:00:44.251Z,14.10
2022-09-16T09:03:25.819Z,14.10
2022-09-16T09:05:53.946Z,14.10
2022-09-16T09:08:23.395Z,14.10
2022-09-16T09:11:10.666Z,14.00
2022-09-16T09:13:47.002Z,13.90
2022-09-16T09:16:48.447Z,13.80
2022-09-16T09:19:33.618Z,13.80
2022-09-16T09:22:05.211Z,13.90
2022-09-16T09:24:56.600Z,13.90
2022-09-16T09:27:31.951Z,13.90
2022-09-16T09:30:08.811Z,13.90
2022-09-16T09:32:56.368Z,13.80
2022-09-16T09:35:56.075Z,13.70
2022-09-16T09:38:47.067Z,13.80
2022-09-16T09:41:19.067Z,13.80
2022-09-16T09:44:04.076Z,13.80
2022-09-16T09:46:37.550Z,13.90
2022-09-16T09:49:43.597Z,14.00
2022-09-16T09:52:28.566Z,13.90
2022-09-16T09:55:00.895Z,13.90
2022-09-16T09:57:31.571Z,13.90
2022-09-16T10:00:02.524Z,13.90
2022-09-16T10:02:29.289Z,13.90
2022-09-16T10:04:56.417Z,14.00
2022-09-16T10:07:25.680Z,13.80
2022-09-16T10:10:03.827Z,13.80
2022-09-16T10:12:34.058Z,13.90
2022-09-16T10:15:01.451Z,14.10
2022-09-16T10:17:31.838Z,14.30
2022-09-16T10:20:01.566Z,14.40
2022-09-16T10:22:33.822Z,14.80
2022-09-16T10:25:03.640Z,15.10
2022-09-16T10:27:35.895Z,15.40
2022-09-16T10:30:14.069Z,15.50
2022-09-16T10:33:23.335Z,15.40
2022-09-16T10:36:02.430Z,15.50
2022-09-16T10:38:41.375Z,15.50
2022-09-16T10:41:22.394Z,15.30
2022-09-16T10:43:57.890Z,15.40
2022-09-16T10:46:25.277Z,15.40
2022-09-16T10:48:57.461Z,15.50
2022-09-16T10:51:30.054Z,15.60
2022-09-16T10:53:59.453Z,15.80
2022-09-16T10:56:47.358Z,15.80
2022-09-16T10:59:15.390Z,15.80
2022-09-16T11:02:05.378Z,16.00
2022-09-16T11:04:32.651Z,16.10
2022-09-16T11:07:33.147Z,16.10
2022-09-16T11:10:08.944Z,15.90
2022-09-16T11:12:54.478Z,15.90
2022-09-16T11:15:58.297Z,15.90
2022-09-16T11:18:39.071Z,15.70
2022-09-16T11:21:15.002Z,15.50
2022-09-16T11:24:07.879Z,15.40
2022-09-16T11:26:40.150Z,15.20
2022-09-16T11:29:14.198Z,15.10
2022-09-16T11:31:52.786Z,15.00
2022-09-16T11:34:51.470Z,13.60
2022-09-16T11:37:36.975Z,13.00
2022-09-16T11:40:29.028Z,12.70
2022-09-16T11:43:04.274Z,12.00
2022-09-16T11:45:53.900Z,11.60
2022-09-16T11:48:26.422Z,11.30
2022-09-16T11:51:18.842Z,11.10
2022-09-16T11:53:51.590Z,10.80
2022-09-16T11:56:35.060Z,10.90
2022-09-16T11:59:25.973Z,10.70
2022-09-16T12:02:02.054Z,10.60
2022-09-16T12:05:13.555Z,10.60
2022-09-16T12:07:48.479Z,10.30
2022-09-16T12:10:27.825Z,10.50
2022-09-16T12:13:09.435Z,10.50
2022-09-16T12:15:42.517Z,10.40
2022-09-16T12:18:34.764Z,10.50
2022-09-16T12:21:25.374Z,10.70
2022-09-16T12:23:58.830Z,10.80
2022-09-16T12:26:32.092Z,11.00
2022-09-16T12:29:24.254Z,10.90
2022-09-16T12:32:00.563Z,10.70
2022-09-16T12:34:38.053Z,10.60
2022-09-16T12:37:10.836Z,10.50
2022-09-16T12:39:38.412Z,10.50
2022-09-16T12:42:49.315Z,10.40
2022-09-16T12:45:22.419Z,10.60
2022-09-16T12:48:02.554Z,10.80
2022-09-16T12:51:00.130Z,10.90
2022-09-16T12:53:38.810Z,10.90
2022-09-16T12:56:15.032Z,10.80
2022-09-16T12:59:05.822Z,10.60
2022-09-16T13:01:40.544Z,10.60
2022-09-16T13:04:16.316Z,10.80
2022-09-16T13:06:55.975Z,11.10
2022-09-16T13:09:24.292Z,11.10
2022-09-16T13:14:54.031Z,11.10
2022-09-16T13:17:36.150Z,11.30
2022-09-16T13:20:11.667Z,11.30
2022-09-16T13:22:41.398Z,11.40
2022-09-16T13:25:28.430Z,11.50
2022-09-16T13:27:55.639Z,11.50
2022-09-16T13:30:37.091Z,11.50
2022-09-16T13:33:26.492Z,11.60
2022-09-16T13:36:25.375Z,11.50
2022-09-16T13:38:54.191Z,11.40
2022-09-16T13:41:32.051Z,11.40
2022-09-16T13:44:00.122Z,11.30
2022-09-16T13:46:37.918Z,11.40
2022-09-16T13:49:10.920Z,11.50
2022-09-16T13:51:47.666Z,11.70
2022-09-16T13:54:48.015Z,11.80
2022-09-16T13:57:32.214Z,11.70
2022-09-16T14:00:14.117Z,11.80
2022-09-16T14:03:16.233Z,11.80
2022-09-16T14:06:02.810Z,11.80
2022-09-16T14:09:08.243Z,12.00
2022-09-16T14:11:47.590Z,12.00
2022-09-16T14:14:45.771Z,11.90
2022-09-16T14:17:15.369Z,11.80
2022-09-16T14:19:46.658Z,11.70
2022-09-16T14:22:18.591Z,11.60
2022-09-16T14:24:48.381Z,11.40
2022-09-16T14:27:30.197Z,11.50
2022-09-16T14:30:13.922Z,11.50
2022-09-16T14:32:41.294Z,11.50
2022-09-16T14:35:16.432Z,11.50
2022-09-16T14:37:46.220Z,11.50
2022-09-16T14:40:16.612Z,11.70
2022-09-16T14:42:57.097Z,11.80
2022-09-16T14:45:24.228Z,11.50
2022-09-16T14:47:53.457Z,11.40
2022-09-16T14:50:25.085Z,11.40
2022-09-16T14:53:03.117Z,11.40
2022-09-16T14:55:33.574Z,11.50
2022-09-16T14:58:01.018Z,11.50
2022-09-16T15:00:44.129Z,11.60
2022-09-16T15:03:32.447Z,11.60
2022-09-16T15:06:04.991Z,11.40
2022-09-16T15:08:52.647Z,11.40
2022-09-16T15:11:46.354Z,11.40
2022-09-16T15:14:09.947Z,11.60
2022-09-16T15:16:44.223Z,11.50
2022-09-16T15:19:21.407Z,11.40
2022-09-16T15:21:48.738Z,11.40
2022-09-16T15:24:20.202Z,11.40
2022-09-16T15:26:48.012Z,11.40
2022-09-16T15:29:17.497Z,11.30
2022-09-16T15:31:45.250Z,11.30
2022-09-16T15:34:20.814Z,11.30
2022-09-16T15:36:48.984Z,11.30
2022-09-16T15:39:54.297Z,11.30
2022-09-16T15:42:24.032Z,11.20
2022-09-16T15:44:56.672Z,11.20
2022-09-16T15:47:37.419Z,11.20
2022-09-16T15:50:06.620Z,11.20
2022-09-16T15:52:47.955Z,11.10
2022-09-16T15:55:32.269Z,11.30
2022-09-16T15:58:28.053Z,11.20
2022-09-16T16:01:03.455Z,11.20
2022-09-16T16:03:39.252Z,11.20
2022-09-16T16:06:06.226Z,11.20
2022-09-16T16:08:51.219Z,11.10
2022-09-16T16:11:20.106Z,11.20
2022-09-16T16:13:49.606Z,11.30
2022-09-16T16:16:18.047Z,11.10
2022-09-16T16:18:46.160Z,11.00
2022-09-16T16:21:16.046Z,11.00
2022-09-16T16:23:43.419Z,11.00
2022-09-16T16:26:11.479Z,11.00
2022-09-16T16:28:38.608Z,11.00
2022-09-16T16:31:08.314Z,11.00
2022-09-16T16:33:35.099Z,11.00
2022-09-16T16:36:02.368Z,11.00
2022-09-16T16:38:29.151Z,11.00
2022-09-16T16:40:55.823Z,11.00
2022-09-16T16:43:22.514Z,11.00
2022-09-16T16:45:56.628Z,11.00
2022-09-16T16:48:24.513Z,11.10
2022-09-16T16:51:03.526Z,10.90
2022-09-16T16:53:31.104Z,10.90
2022-09-16T16:56:14.002Z,10.90
2022-09-16T16:58:43.175Z,10.90
2022-09-16T17:01:18.350Z,10.90
2022-09-16T17:03:47.662Z,10.90
2022-09-16T17:06:14.371Z,10.90
2022-09-16T17:08:41.399Z,10.90
2022-09-16T17:11:16.348Z,11.00
2022-09-16T17:13:45.354Z,10.90
2022-09-16T17:16:14.155Z,10.90
2022-09-16T17:18:42.125Z,10.90
2022-09-16T17:21:14.238Z,11.20
2022-09-16T17:23:40.953Z,10.90
2022-09-16T17:26:11.385Z,10.90
2022-09-16T17:28:41.129Z,10.90
2022-09-16T17:31:14.333Z,10.90
2022-09-16T17:33:41.017Z,10.90
2022-09-16T17:36:09.602Z,10.90
2022-09-16T17:38:36.450Z,10.70
2022-09-16T17:41:07.448Z,10.80
2022-09-16T17:43:34.891Z,10.70
2022-09-16T17:46:04.224Z,10.90
2022-09-16T17:48:31.185Z,10.70
2022-09-16T17:50:58.636Z,10.70
2022-09-16T17:53:26.135Z,10.70
2022-09-16T17:55:52.839Z,10.80
2022-09-16T17:58:19.519Z,10.80
2022-09-16T18:00:46.207Z,10.90
2022-09-16T18:03:13.302Z,10.50
2022-09-16T18:05:40.387Z,10.70
2022-09-16T18:08:07.117Z,10.90
2022-09-16T18:10:33.807Z,11.00
2022-09-16T18:13:00.826Z,10.60
2022-09-16T18:15:27.732Z,10.60
2022-09-16T18:17:54.619Z,10.60
2022-09-16T18:20:21.735Z,10.60
2022-09-16T18:22:48.568Z,10.60
2022-09-16T18:25:15.337Z,10.60
2022-09-16T18:27:44.174Z,10.70
2022-09-16T18:30:11.615Z,10.60
2022-09-16T18:32:38.278Z,10.60
2022-09-16T18:35:05.452Z,10.50
2022-09-16T18:37:32.135Z,10.50
2022-09-16T18:39:58.902Z,10.50
2022-09-16T18:42:25.707Z,10.50
2022-09-16T18:44:52.388Z,10.80
2022-09-16T18:47:19.073Z,10.50
2022-09-16T18:49:45.787Z,11.50
2022-09-16T18:52:12.461Z,10.70
2022-09-16T18:54:39.209Z,10.50
2022-09-16T18:57:05.906Z,10.70
2022-09-16T18:59:34.196Z,10.90
2022-09-16T19:02:03.303Z,10.60
2022-09-16T19:04:32.765Z,10.60
2022-09-16T19:07:08.103Z,10.60
2022-09-16T19:09:36.640Z,10.80
2022-09-16T19:12:04.400Z,10.50
2022-09-16T19:14:31.102Z,10.50
2022-09-16T19:16:57.797Z,10.50
2022-09-16T19:19:24.671Z,10.40
2022-09-16T19:21:51.567Z,10.60
2022-09-16T19:24:23.491Z,10.40
2022-09-16T19:26:53.126Z,10.40
2022-09-16T19:29:20.786Z,10.40
2022-09-16T19:31:49.383Z,10.50
2022-09-16T19:34:16.771Z,11.10
2022-09-16T19:36:43.755Z,10.90
2022-09-16T19:39:12.230Z,10.50
2022-09-16T19:41:40.265Z,10.70
2022-09-16T19:44:11.031Z,10.50
2022-09-16T19:46:38.881Z,10.50
2022-09-16T19:49:06.729Z,10.50
2022-09-16T19:51:33.822Z,10.50
2022-09-16T19:54:01.481Z,10.50
2022-09-16T19:56:33.404Z,10.40
2022-09-16T19:59:01.536Z,10.40
2022-09-16T20:01:31.362Z,10.40
2022-09-16T20:03:58.503Z,10.40
